sensor_id;sensor_type;location;lat;lon;timestamp;P1;durP1;ratioP1;P2;durP2;ratioP2
9924;SDS011;5001;51.674;7.868;2023-12-07T00:02:06;24.50;;;19.50;;
9924;SDS011;5001;51.674;7.868;2023-12-07T00:04:33;22.67;;;18.90;;
9924;SDS011;5001;51.674;7.868;2023-12-07T00:07:00;26.37;;;20.07;;
9924;SDS011;5001;51.674;7.868;2023-12-07T00:09:27;20.77;;;18.83;;
9924;SDS011;5001;51.674;7.868;2023-12-07T00:11:54;24.73;;;19.83;;
9924;SDS011;5001;51.674;7.868;2023-12-07T00:14:22;25.13;;;18.37;;
9924;SDS011;5001;51.674;7.868;2023-12-07T00:16:49;21.93;;;18.50;;
9924;SDS011;5001;51.674;7.868;2023-12-07T00:19:15;29.57;;;20.50;;
9924;SDS011;5001;51.674;7.868;2023-12-07T00:21:42;22.57;;;19.13;;
9924;SDS011;5001;51.674;7.868;2023-12-07T00:24:09;22.33;;;18.80;;
9924;SDS011;5001;51.674;7.868;2023-12-07T00:26:36;24.93;;;19.03;;
9924;SDS011;5001;51.674;7.868;2023-12-07T00:29:04;20.30;;;18.27;;
9924;SDS011;5001;51.674;7.868;2023-12-07T00:31:31;21.20;;;18.77;;
9924;SDS011;5001;51.674;7.868;2023-12-07T00:33:58;21.33;;;19.00;;
9924;SDS011;5001;51.674;7.868;2023-12-07T00:36:25;25.37;;;19.03;;
9924;SDS011;5001;51.674;7.868;2023-12-07T00:38:52;21.77;;;19.40;;
9924;SDS011;5001;51.674;7.868;2023-12-07T00:41:19;23.83;;;19.80;;
9924;SDS011;5001;51.674;7.868;2023-12-07T00:43:46;25.33;;;18.97;;
9924;SDS011;5001;51.674;7.868;2023-12-07T00:46:14;24.10;;;19.50;;
9924;SDS011;5001;51.674;7.868;2023-12-07T00:48:41;28.60;;;21.33;;
9924;SDS011;5001;51.674;7.868;2023-12-07T00:51:08;31.27;;;21.73;;
9924;SDS011;5001;51.674;7.868;2023-12-07T00:53:35;29.27;;;22.33;;
9924;SDS011;5001;51.674;7.868;2023-12-07T00:56:03;26.50;;;19.63;;
9924;SDS011;5001;51.674;7.868;2023-12-07T00:58:30;27.53;;;21.87;;
9924;SDS011;5001;51.674;7.868;2023-12-07T01:00:57;33.10;;;23.20;;
9924;SDS011;5001;51.674;7.868;2023-12-07T01:03:24;28.97;;;21.60;;
9924;SDS011;5001;51.674;7.868;2023-12-07T01:05:51;26.17;;;20.27;;
9924;SDS011;5001;51.674;7.868;2023-12-07T01:08:18;22.77;;;18.57;;
9924;SDS011;5001;51.674;7.868;2023-12-07T01:10:45;24.20;;;19.40;;
9924;SDS011;5001;51.674;7.868;2023-12-07T01:13:12;24.83;;;20.83;;
9924;SDS011;5001;51.674;7.868;2023-12-07T01:15:39;27.23;;;19.87;;
9924;SDS011;5001;51.674;7.868;2023-12-07T01:18:06;25.70;;;20.97;;
9924;SDS011;5001;51.674;7.868;2023-12-07T01:20:36;31.43;;;20.90;;
9924;SDS011;5001;51.674;7.868;2023-12-07T01:23:03;26.57;;;19.93;;
9924;SDS011;5001;51.674;7.868;2023-12-07T01:25:30;28.87;;;20.63;;
9924;SDS011;5001;51.674;7.868;2023-12-07T01:27:58;25.37;;;20.10;;
9924;SDS011;5001;51.674;7.868;2023-12-07T01:30:25;32.50;;;20.10;;
9924;SDS011;5001;51.674;7.868;2023-12-07T01:32:52;34.30;;;22.97;;
9924;SDS011;5001;51.674;7.868;2023-12-07T01:35:19;29.30;;;22.00;;
9924;SDS011;5001;51.674;7.868;2023-12-07T01:37:46;34.13;;;22.23;;
9924;SDS011;5001;51.674;7.868;2023-12-07T01:40:14;29.43;;;21.57;;
9924;SDS011;5001;51.674;7.868;2023-12-07T01:42:51;29.10;;;21.10;;
9924;SDS011;5001;51.674;7.868;2023-12-07T01:45:19;34.17;;;22.73;;
9924;SDS011;5001;51.674;7.868;2023-12-07T01:47:47;30.00;;;21.67;;
9924;SDS011;5001;51.674;7.868;2023-12-07T01:50:16;28.10;;;20.63;;
9924;SDS011;5001;51.674;7.868;2023-12-07T01:52:51;33.37;;;21.57;;
9924;SDS011;5001;51.674;7.868;2023-12-07T01:55:21;32.20;;;21.90;;
9924;SDS011;5001;51.674;7.868;2023-12-07T01:57:49;37.90;;;24.13;;
9924;SDS011;5001;51.674;7.868;2023-12-07T02:00:16;37.70;;;23.93;;
9924;SDS011;5001;51.674;7.868;2023-12-07T02:02:44;33.87;;;21.50;;
9924;SDS011;5001;51.674;7.868;2023-12-07T02:05:12;37.57;;;24.03;;
9924;SDS011;5001;51.674;7.868;2023-12-07T02:07:40;41.80;;;28.13;;
9924;SDS011;5001;51.674;7.868;2023-12-07T02:10:09;35.90;;;23.70;;
9924;SDS011;5001;51.674;7.868;2023-12-07T02:12:39;37.97;;;25.07;;
9924;SDS011;5001;51.674;7.868;2023-12-07T02:15:07;44.33;;;28.20;;
9924;SDS011;5001;51.674;7.868;2023-12-07T02:20:28;37.73;;;24.63;;
9924;SDS011;5001;51.674;7.868;2023-12-07T02:22:56;39.87;;;24.70;;
9924;SDS011;5001;51.674;7.868;2023-12-07T02:25:32;32.63;;;23.03;;
9924;SDS011;5001;51.674;7.868;2023-12-07T02:28:06;42.77;;;24.53;;
9924;SDS011;5001;51.674;7.868;2023-12-07T02:30:33;42.67;;;25.90;;
9924;SDS011;5001;51.674;7.868;2023-12-07T02:33:00;46.27;;;26.43;;
9924;SDS011;5001;51.674;7.868;2023-12-07T02:35:28;45.73;;;24.27;;
9924;SDS011;5001;51.674;7.868;2023-12-07T02:37:55;47.83;;;26.03;;
9924;SDS011;5001;51.674;7.868;2023-12-07T02:40:26;48.77;;;25.03;;
9924;SDS011;5001;51.674;7.868;2023-12-07T02:42:55;50.47;;;26.43;;
9924;SDS011;5001;51.674;7.868;2023-12-07T02:45:24;49.77;;;25.90;;
9924;SDS011;5001;51.674;7.868;2023-12-07T02:47:52;54.70;;;27.13;;
9924;SDS011;5001;51.674;7.868;2023-12-07T02:50:20;43.40;;;24.87;;
9924;SDS011;5001;51.674;7.868;2023-12-07T02:52:47;48.97;;;24.83;;
9924;SDS011;5001;51.674;7.868;2023-12-07T02:55:14;47.27;;;24.17;;
9924;SDS011;5001;51.674;7.868;2023-12-07T02:57:41;44.10;;;24.37;;
9924;SDS011;5001;51.674;7.868;2023-12-07T03:00:08;45.33;;;24.20;;
9924;SDS011;5001;51.674;7.868;2023-12-07T03:06:17;45.53;;;22.90;;
9924;SDS011;5001;51.674;7.868;2023-12-07T03:08:46;46.20;;;24.93;;
9924;SDS011;5001;51.674;7.868;2023-12-07T03:11:13;50.63;;;25.27;;
9924;SDS011;5001;51.674;7.868;2023-12-07T03:13:40;42.97;;;24.00;;
9924;SDS011;5001;51.674;7.868;2023-12-07T03:16:07;40.13;;;22.50;;
9924;SDS011;5001;51.674;7.868;2023-12-07T03:18:36;50.20;;;24.53;;
9924;SDS011;5001;51.674;7.868;2023-12-07T03:21:03;43.33;;;24.53;;
9924;SDS011;5001;51.674;7.868;2023-12-07T03:23:35;49.23;;;25.70;;
9924;SDS011;5001;51.674;7.868;2023-12-07T03:26:02;41.03;;;23.90;;
9924;SDS011;5001;51.674;7.868;2023-12-07T03:28:29;46.67;;;24.93;;
9924;SDS011;5001;51.674;7.868;2023-12-07T03:30:56;49.83;;;25.70;;
9924;SDS011;5001;51.674;7.868;2023-12-07T03:33:23;37.93;;;21.53;;
9924;SDS011;5001;51.674;7.868;2023-12-07T03:35:50;37.80;;;23.30;;
9924;SDS011;5001;51.674;7.868;2023-12-07T03:38:17;45.23;;;25.20;;
9924;SDS011;5001;51.674;7.868;2023-12-07T03:40:45;37.90;;;22.30;;
9924;SDS011;5001;51.674;7.868;2023-12-07T03:43:16;43.00;;;24.07;;
9924;SDS011;5001;51.674;7.868;2023-12-07T03:45:45;46.80;;;24.97;;
9924;SDS011;5001;51.674;7.868;2023-12-07T03:48:12;44.63;;;23.10;;
9924;SDS011;5001;51.674;7.868;2023-12-07T03:50:39;45.60;;;23.60;;
9924;SDS011;5001;51.674;7.868;2023-12-07T03:53:07;45.27;;;24.37;;
9924;SDS011;5001;51.674;7.868;2023-12-07T03:55:34;37.67;;;23.40;;
9924;SDS011;5001;51.674;7.868;2023-12-07T03:58:00;42.10;;;23.60;;
9924;SDS011;5001;51.674;7.868;2023-12-07T04:00:27;39.93;;;23.40;;
9924;SDS011;5001;51.674;7.868;2023-12-07T04:02:54;39.50;;;24.40;;
9924;SDS011;5001;51.674;7.868;2023-12-07T04:05:21;41.87;;;24.23;;
9924;SDS011;5001;51.674;7.868;2023-12-07T04:07:48;42.13;;;24.93;;
9924;SDS011;5001;51.674;7.868;2023-12-07T04:10:15;40.40;;;24.40;;
9924;SDS011;5001;51.674;7.868;2023-12-07T04:12:42;39.57;;;23.10;;
9924;SDS011;5001;51.674;7.868;2023-12-07T04:15:09;43.97;;;25.17;;
9924;SDS011;5001;51.674;7.868;2023-12-07T04:17:36;43.63;;;25.60;;
9924;SDS011;5001;51.674;7.868;2023-12-07T04:20:04;47.13;;;24.07;;
9924;SDS011;5001;51.674;7.868;2023-12-07T04:22:31;41.90;;;24.03;;
9924;SDS011;5001;51.674;7.868;2023-12-07T04:24:58;35.70;;;21.63;;
9924;SDS011;5001;51.674;7.868;2023-12-07T04:27:25;41.57;;;23.50;;
9924;SDS011;5001;51.674;7.868;2023-12-07T04:29:52;37.07;;;23.87;;
9924;SDS011;5001;51.674;7.868;2023-12-07T04:32:20;41.07;;;24.27;;
9924;SDS011;5001;51.674;7.868;2023-12-07T04:34:47;41.27;;;23.47;;
9924;SDS011;5001;51.674;7.868;2023-12-07T04:37:14;40.07;;;24.17;;
9924;SDS011;5001;51.674;7.868;2023-12-07T04:39:41;41.50;;;24.73;;
9924;SDS011;5001;51.674;7.868;2023-12-07T04:42:08;40.17;;;23.67;;
9924;SDS011;5001;51.674;7.868;2023-12-07T04:44:35;36.57;;;22.80;;
9924;SDS011;5001;51.674;7.868;2023-12-07T04:47:02;42.70;;;23.83;;
9924;SDS011;5001;51.674;7.868;2023-12-07T04:49:29;35.97;;;22.87;;
9924;SDS011;5001;51.674;7.868;2023-12-07T04:51:59;41.97;;;22.07;;
9924;SDS011;5001;51.674;7.868;2023-12-07T04:54:26;39.47;;;22.37;;
9924;SDS011;5001;51.674;7.868;2023-12-07T04:56:54;32.40;;;22.37;;
9924;SDS011;5001;51.674;7.868;2023-12-07T04:59:21;32.23;;;21.77;;
9924;SDS011;5001;51.674;7.868;2023-12-07T05:01:47;32.50;;;21.47;;
9924;SDS011;5001;51.674;7.868;2023-12-07T05:04:14;35.70;;;22.90;;
9924;SDS011;5001;51.674;7.868;2023-12-07T05:06:41;34.17;;;20.33;;
9924;SDS011;5001;51.674;7.868;2023-12-07T05:09:08;39.67;;;23.07;;
9924;SDS011;5001;51.674;7.868;2023-12-07T05:11:35;35.50;;;22.47;;
9924;SDS011;5001;51.674;7.868;2023-12-07T05:14:04;41.67;;;25.53;;
9924;SDS011;5001;51.674;7.868;2023-12-07T05:16:31;43.30;;;26.73;;
9924;SDS011;5001;51.674;7.868;2023-12-07T05:18:58;35.47;;;21.87;;
9924;SDS011;5001;51.674;7.868;2023-12-07T05:21:25;46.63;;;24.57;;
9924;SDS011;5001;51.674;7.868;2023-12-07T05:23:52;41.60;;;24.00;;
9924;SDS011;5001;51.674;7.868;2023-12-07T05:26:19;43.37;;;25.03;;
9924;SDS011;5001;51.674;7.868;2023-12-07T05:28:47;41.87;;;25.63;;
9924;SDS011;5001;51.674;7.868;2023-12-07T05:31:17;45.83;;;23.80;;
9924;SDS011;5001;51.674;7.868;2023-12-07T05:33:45;42.50;;;22.77;;
9924;SDS011;5001;51.674;7.868;2023-12-07T05:36:12;38.83;;;22.50;;
9924;SDS011;5001;51.674;7.868;2023-12-07T05:38:38;40.63;;;22.77;;
9924;SDS011;5001;51.674;7.868;2023-12-07T05:41:05;39.40;;;21.97;;
9924;SDS011;5001;51.674;7.868;2023-12-07T05:43:32;39.10;;;21.30;;
9924;SDS011;5001;51.674;7.868;2023-12-07T05:46:00;38.73;;;22.73;;
9924;SDS011;5001;51.674;7.868;2023-12-07T05:48:27;42.53;;;23.73;;
9924;SDS011;5001;51.674;7.868;2023-12-07T05:50:54;37.70;;;20.13;;
9924;SDS011;5001;51.674;7.868;2023-12-07T05:53:21;47.20;;;22.47;;
9924;SDS011;5001;51.674;7.868;2023-12-07T05:55:48;46.60;;;23.10;;
9924;SDS011;5001;51.674;7.868;2023-12-07T05:58:16;43.50;;;23.07;;
9924;SDS011;5001;51.674;7.868;2023-12-07T06:00:46;52.83;;;27.10;;
9924;SDS011;5001;51.674;7.868;2023-12-07T06:03:13;45.47;;;24.00;;
9924;SDS011;5001;51.674;7.868;2023-12-07T06:05:41;46.63;;;23.63;;
9924;SDS011;5001;51.674;7.868;2023-12-07T06:08:09;37.33;;;21.40;;
9924;SDS011;5001;51.674;7.868;2023-12-07T06:10:36;42.80;;;24.03;;
9924;SDS011;5001;51.674;7.868;2023-12-07T06:13:04;44.43;;;22.63;;
9924;SDS011;5001;51.674;7.868;2023-12-07T06:15:31;41.87;;;23.63;;
9924;SDS011;5001;51.674;7.868;2023-12-07T06:17:59;41.60;;;22.77;;
9924;SDS011;5001;51.674;7.868;2023-12-07T06:20:26;55.37;;;25.73;;
9924;SDS011;5001;51.674;7.868;2023-12-07T06:22:53;47.43;;;23.63;;
9924;SDS011;5001;51.674;7.868;2023-12-07T06:25:21;46.90;;;22.60;;
9924;SDS011;5001;51.674;7.868;2023-12-07T06:27:48;43.57;;;21.30;;
9924;SDS011;5001;51.674;7.868;2023-12-07T06:30:15;48.70;;;21.47;;
9924;SDS011;5001;51.674;7.868;2023-12-07T06:32:42;36.60;;;20.93;;
9924;SDS011;5001;51.674;7.868;2023-12-07T06:35:13;46.37;;;21.63;;
9924;SDS011;5001;51.674;7.868;2023-12-07T06:37:40;56.00;;;30.33;;
9924;SDS011;5001;51.674;7.868;2023-12-07T06:40:11;53.43;;;28.23;;
9924;SDS011;5001;51.674;7.868;2023-12-07T06:42:38;54.90;;;27.57;;
9924;SDS011;5001;51.674;7.868;2023-12-07T06:45:06;44.40;;;21.40;;
9924;SDS011;5001;51.674;7.868;2023-12-07T06:47:37;48.73;;;22.53;;
9924;SDS011;5001;51.674;7.868;2023-12-07T06:50:05;37.97;;;19.27;;
9924;SDS011;5001;51.674;7.868;2023-12-07T06:52:36;34.90;;;20.40;;
9924;SDS011;5001;51.674;7.868;2023-12-07T06:55:04;35.70;;;19.37;;
9924;SDS011;5001;51.674;7.868;2023-12-07T06:57:32;39.57;;;20.67;;
9924;SDS011;5001;51.674;7.868;2023-12-07T06:59:59;37.47;;;20.47;;
9924;SDS011;5001;51.674;7.868;2023-12-07T07:02:27;36.33;;;19.60;;
9924;SDS011;5001;51.674;7.868;2023-12-07T07:04:54;37.17;;;21.53;;
9924;SDS011;5001;51.674;7.868;2023-12-07T07:07:21;41.60;;;20.77;;
9924;SDS011;5001;51.674;7.868;2023-12-07T07:09:49;41.67;;;21.33;;
9924;SDS011;5001;51.674;7.868;2023-12-07T07:12:15;42.40;;;20.70;;
9924;SDS011;5001;51.674;7.868;2023-12-07T07:14:42;37.93;;;20.87;;
9924;SDS011;5001;51.674;7.868;2023-12-07T07:17:09;39.23;;;21.43;;
9924;SDS011;5001;51.674;7.868;2023-12-07T07:19:36;40.70;;;20.57;;
9924;SDS011;5001;51.674;7.868;2023-12-07T07:22:03;33.30;;;19.70;;
9924;SDS011;5001;51.674;7.868;2023-12-07T07:24:31;41.33;;;20.00;;
9924;SDS011;5001;51.674;7.868;2023-12-07T07:26:58;39.07;;;20.73;;
9924;SDS011;5001;51.674;7.868;2023-12-07T07:29:25;38.37;;;22.27;;
9924;SDS011;5001;51.674;7.868;2023-12-07T07:31:55;33.90;;;21.23;;
9924;SDS011;5001;51.674;7.868;2023-12-07T07:34:22;37.20;;;21.37;;
9924;SDS011;5001;51.674;7.868;2023-12-07T07:36:49;39.50;;;21.60;;
9924;SDS011;5001;51.674;7.868;2023-12-07T07:39:16;35.50;;;21.63;;
9924;SDS011;5001;51.674;7.868;2023-12-07T07:41:43;37.93;;;21.77;;
9924;SDS011;5001;51.674;7.868;2023-12-07T07:44:10;41.47;;;22.97;;
9924;SDS011;5001;51.674;7.868;2023-12-07T07:46:37;38.60;;;21.53;;
9924;SDS011;5001;51.674;7.868;2023-12-07T07:49:06;36.80;;;21.80;;
9924;SDS011;5001;51.674;7.868;2023-12-07T07:51:34;41.40;;;23.33;;
9924;SDS011;5001;51.674;7.868;2023-12-07T07:54:00;39.93;;;22.77;;
9924;SDS011;5001;51.674;7.868;2023-12-07T07:56:27;41.30;;;22.30;;
9924;SDS011;5001;51.674;7.868;2023-12-07T07:58:54;41.77;;;23.50;;
9924;SDS011;5001;51.674;7.868;2023-12-07T08:01:21;36.57;;;21.57;;
9924;SDS011;5001;51.674;7.868;2023-12-07T08:03:48;38.27;;;22.37;;
9924;SDS011;5001;51.674;7.868;2023-12-07T08:06:15;42.93;;;23.87;;
9924;SDS011;5001;51.674;7.868;2023-12-07T08:08:42;40.50;;;22.50;;
9924;SDS011;5001;51.674;7.868;2023-12-07T08:11:09;29.77;;;22.00;;
9924;SDS011;5001;51.674;7.868;2023-12-07T08:13:36;34.57;;;21.53;;
9924;SDS011;5001;51.674;7.868;2023-12-07T08:16:06;35.90;;;21.93;;
9924;SDS011;5001;51.674;7.868;2023-12-07T08:18:35;36.87;;;21.87;;
9924;SDS011;5001;51.674;7.868;2023-12-07T08:21:02;35.30;;;21.07;;
9924;SDS011;5001;51.674;7.868;2023-12-07T08:23:30;35.83;;;21.73;;
9924;SDS011;5001;51.674;7.868;2023-12-07T08:25:57;37.93;;;23.47;;
9924;SDS011;5001;51.674;7.868;2023-12-07T08:28:24;37.37;;;23.00;;
9924;SDS011;5001;51.674;7.868;2023-12-07T08:30:51;36.13;;;21.47;;
9924;SDS011;5001;51.674;7.868;2023-12-07T08:33:17;39.57;;;21.70;;
9924;SDS011;5001;51.674;7.868;2023-12-07T08:35:44;35.20;;;20.37;;
9924;SDS011;5001;51.674;7.868;2023-12-07T08:38:12;32.10;;;21.80;;
9924;SDS011;5001;51.674;7.868;2023-12-07T08:40:39;35.10;;;23.10;;
9924;SDS011;5001;51.674;7.868;2023-12-07T08:43:06;37.73;;;23.17;;
9924;SDS011;5001;51.674;7.868;2023-12-07T08:45:33;38.87;;;24.97;;
9924;SDS011;5001;51.674;7.868;2023-12-07T08:48:04;37.17;;;23.30;;
9924;SDS011;5001;51.674;7.868;2023-12-07T08:50:31;39.80;;;22.97;;
9924;SDS011;5001;51.674;7.868;2023-12-07T08:52:58;37.50;;;22.80;;
9924;SDS011;5001;51.674;7.868;2023-12-07T08:55:30;38.27;;;22.57;;
9924;SDS011;5001;51.674;7.868;2023-12-07T08:57:58;31.80;;;21.07;;
9924;SDS011;5001;51.674;7.868;2023-12-07T09:00:27;32.67;;;21.63;;
9924;SDS011;5001;51.674;7.868;2023-12-07T09:02:54;34.97;;;23.30;;
9924;SDS011;5001;51.674;7.868;2023-12-07T09:05:22;32.87;;;21.83;;
9924;SDS011;5001;51.674;7.868;2023-12-07T09:07:49;39.10;;;22.47;;
9924;SDS011;5001;51.674;7.868;2023-12-07T09:10:16;47.47;;;22.63;;
9924;SDS011;5001;51.674;7.868;2023-12-07T09:12:43;47.30;;;28.23;;
9924;SDS011;5001;51.674;7.868;2023-12-07T09:15:10;57.33;;;30.47;;
9924;SDS011;5001;51.674;7.868;2023-12-07T09:17:38;53.43;;;30.37;;
9924;SDS011;5001;51.674;7.868;2023-12-07T09:20:09;33.63;;;26.37;;
9924;SDS011;5001;51.674;7.868;2023-12-07T09:22:41;25.97;;;23.40;;
9924;SDS011;5001;51.674;7.868;2023-12-07T09:25:13;27.48;;;24.20;;
9924;SDS011;5001;51.674;7.868;2023-12-07T09:27:42;29.70;;;26.17;;
9924;SDS011;5001;51.674;7.868;2023-12-07T09:30:09;31.30;;;25.33;;
9924;SDS011;5001;51.674;7.868;2023-12-07T09:32:38;32.97;;;26.92;;
9924;SDS011;5001;51.674;7.868;2023-12-07T09:35:07;47.70;;;34.83;;
9924;SDS011;5001;51.674;7.868;2023-12-07T09:37:41;75.95;;;46.63;;
9924;SDS011;5001;51.674;7.868;2023-12-07T09:40:10;29.27;;;26.17;;
9924;SDS011;5001;51.674;7.868;2023-12-07T09:42:42;29.92;;;26.75;;
9924;SDS011;5001;51.674;7.868;2023-12-07T09:45:10;28.33;;;25.42;;
9924;SDS011;5001;51.674;7.868;2023-12-07T09:47:37;28.77;;;25.88;;
9924;SDS011;5001;51.674;7.868;2023-12-07T09:50:08;27.88;;;25.08;;
9924;SDS011;5001;51.674;7.868;2023-12-07T09:52:35;28.92;;;25.88;;
9924;SDS011;5001;51.674;7.868;2023-12-07T09:55:03;28.30;;;25.15;;
9924;SDS011;5001;51.674;7.868;2023-12-07T09:57:30;29.27;;;26.08;;
9924;SDS011;5001;51.674;7.868;2023-12-07T09:59:59;27.40;;;24.70;;
9924;SDS011;5001;51.674;7.868;2023-12-07T10:02:26;28.60;;;25.67;;
9924;SDS011;5001;51.674;7.868;2023-12-07T10:05:09;28.95;;;25.30;;
9924;SDS011;5001;51.674;7.868;2023-12-07T10:07:40;28.55;;;25.55;;
9924;SDS011;5001;51.674;7.868;2023-12-07T10:10:08;27.45;;;24.60;;
9924;SDS011;5001;51.674;7.868;2023-12-07T10:12:44;28.75;;;25.67;;
9924;SDS011;5001;51.674;7.868;2023-12-07T10:15:15;27.05;;;24.25;;
9924;SDS011;5001;51.674;7.868;2023-12-07T10:17:50;27.55;;;24.92;;
9924;SDS011;5001;51.674;7.868;2023-12-07T10:20:18;26.73;;;24.13;;
9924;SDS011;5001;51.674;7.868;2023-12-07T10:23:03;27.33;;;24.52;;
9924;SDS011;5001;51.674;7.868;2023-12-07T10:25:32;27.52;;;24.83;;
9924;SDS011;5001;51.674;7.868;2023-12-07T10:28:02;27.17;;;24.65;;
9924;SDS011;5001;51.674;7.868;2023-12-07T10:30:34;30.25;;;25.80;;
9924;SDS011;5001;51.674;7.868;2023-12-07T10:33:04;27.98;;;25.30;;
9924;SDS011;5001;51.674;7.868;2023-12-07T10:35:31;27.17;;;24.35;;
9924;SDS011;5001;51.674;7.868;2023-12-07T10:37:58;33.20;;;29.63;;
9924;SDS011;5001;51.674;7.868;2023-12-07T10:40:26;29.38;;;25.10;;
9924;SDS011;5001;51.674;7.868;2023-12-07T10:42:55;29.15;;;26.17;;
9924;SDS011;5001;51.674;7.868;2023-12-07T10:45:28;29.33;;;26.33;;
9924;SDS011;5001;51.674;7.868;2023-12-07T10:48:06;33.20;;;29.73;;
9924;SDS011;5001;51.674;7.868;2023-12-07T10:50:35;25.83;;;23.42;;
9924;SDS011;5001;51.674;7.868;2023-12-07T10:53:09;25.92;;;23.38;;
9924;SDS011;5001;51.674;7.868;2023-12-07T10:55:55;25.45;;;22.92;;
9924;SDS011;5001;51.674;7.868;2023-12-07T10:58:23;25.55;;;23.02;;
9924;SDS011;5001;51.674;7.868;2023-12-07T11:00:54;25.35;;;22.75;;
9924;SDS011;5001;51.674;7.868;2023-12-07T11:03:23;25.23;;;22.70;;
9924;SDS011;5001;51.674;7.868;2023-12-07T11:05:51;24.60;;;22.02;;
9924;SDS011;5001;51.674;7.868;2023-12-07T11:11:21;25.23;;;22.83;;
9924;SDS011;5001;51.674;7.868;2023-12-07T11:13:59;25.00;;;22.60;;
9924;SDS011;5001;51.674;7.868;2023-12-07T11:16:33;25.23;;;22.75;;
9924;SDS011;5001;51.674;7.868;2023-12-07T11:19:02;25.10;;;22.92;;
9924;SDS011;5001;51.674;7.868;2023-12-07T11:21:34;25.00;;;22.70;;
9924;SDS011;5001;51.674;7.868;2023-12-07T11:24:02;25.73;;;23.45;;
9924;SDS011;5001;51.674;7.868;2023-12-07T11:26:30;24.95;;;22.60;;
9924;SDS011;5001;51.674;7.868;2023-12-07T11:28:57;24.52;;;22.25;;
9924;SDS011;5001;51.674;7.868;2023-12-07T11:31:25;25.58;;;23.05;;
9924;SDS011;5001;51.674;7.868;2023-12-07T11:33:53;25.73;;;23.33;;
9924;SDS011;5001;51.674;7.868;2023-12-07T11:36:20;29.73;;;26.67;;
9924;SDS011;5001;51.674;7.868;2023-12-07T11:41:29;26.50;;;23.80;;
9924;SDS011;5001;51.674;7.868;2023-12-07T11:43:59;25.63;;;23.00;;
9924;SDS011;5001;51.674;7.868;2023-12-07T11:46:26;25.63;;;23.23;;
9924;SDS011;5001;51.674;7.868;2023-12-07T11:48:53;27.83;;;24.93;;
9924;SDS011;5001;51.674;7.868;2023-12-07T11:51:21;25.20;;;22.60;;
9924;SDS011;5001;51.674;7.868;2023-12-07T11:53:48;24.17;;;21.70;;
9924;SDS011;5001;51.674;7.868;2023-12-07T11:56:16;25.83;;;23.33;;
9924;SDS011;5001;51.674;7.868;2023-12-07T11:58:48;23.00;;;21.07;;
9924;SDS011;5001;51.674;7.868;2023-12-07T12:01:16;23.10;;;21.07;;
9924;SDS011;5001;51.674;7.868;2023-12-07T12:03:44;24.53;;;22.07;;
9924;SDS011;5001;51.674;7.868;2023-12-07T12:06:10;23.57;;;21.37;;
9924;SDS011;5001;51.674;7.868;2023-12-07T12:08:41;24.07;;;21.83;;
9924;SDS011;5001;51.674;7.868;2023-12-07T12:11:09;23.23;;;21.03;;
9924;SDS011;5001;51.674;7.868;2023-12-07T12:13:36;23.90;;;21.70;;
9924;SDS011;5001;51.674;7.868;2023-12-07T12:16:04;25.87;;;23.47;;
9924;SDS011;5001;51.674;7.868;2023-12-07T12:18:33;23.03;;;21.03;;
9924;SDS011;5001;51.674;7.868;2023-12-07T12:21:01;23.10;;;21.00;;
9924;SDS011;5001;51.674;7.868;2023-12-07T12:23:28;23.93;;;21.53;;
9924;SDS011;5001;51.674;7.868;2023-12-07T12:25:56;24.30;;;21.80;;
9924;SDS011;5001;51.674;7.868;2023-12-07T12:28:24;42.83;;;31.10;;
9924;SDS011;5001;51.674;7.868;2023-12-07T12:30:52;23.30;;;20.93;;
9924;SDS011;5001;51.674;7.868;2023-12-07T12:33:19;23.67;;;21.20;;
9924;SDS011;5001;51.674;7.868;2023-12-07T12:35:46;24.70;;;22.43;;
9924;SDS011;5001;51.674;7.868;2023-12-07T12:38:25;23.50;;;21.20;;
9924;SDS011;5001;51.674;7.868;2023-12-07T12:41:06;21.80;;;19.90;;
9924;SDS011;5001;51.674;7.868;2023-12-07T12:43:34;23.10;;;20.80;;
9924;SDS011;5001;51.674;7.868;2023-12-07T12:46:03;22.70;;;20.43;;
9924;SDS011;5001;51.674;7.868;2023-12-07T12:48:32;22.03;;;20.23;;
9924;SDS011;5001;51.674;7.868;2023-12-07T12:51:12;22.53;;;20.50;;
9924;SDS011;5001;51.674;7.868;2023-12-07T12:53:46;22.03;;;20.23;;
9924;SDS011;5001;51.674;7.868;2023-12-07T12:56:17;22.30;;;20.30;;
9924;SDS011;5001;51.674;7.868;2023-12-07T12:58:46;21.70;;;19.80;;
9924;SDS011;5001;51.674;7.868;2023-12-07T13:01:15;22.17;;;20.27;;
9924;SDS011;5001;51.674;7.868;2023-12-07T13:03:44;21.43;;;19.67;;
9924;SDS011;5001;51.674;7.868;2023-12-07T13:06:12;21.93;;;19.90;;
9924;SDS011;5001;51.674;7.868;2023-12-07T13:08:41;23.00;;;21.00;;
9924;SDS011;5001;51.674;7.868;2023-12-07T13:11:18;22.23;;;20.37;;
9924;SDS011;5001;51.674;7.868;2023-12-07T13:13:46;22.03;;;20.33;;
9924;SDS011;5001;51.674;7.868;2023-12-07T13:16:15;22.03;;;20.13;;
9924;SDS011;5001;51.674;7.868;2023-12-07T13:18:43;20.93;;;19.13;;
9924;SDS011;5001;51.674;7.868;2023-12-07T13:21:10;21.37;;;19.47;;
9924;SDS011;5001;51.674;7.868;2023-12-07T13:23:38;21.30;;;19.33;;
9924;SDS011;5001;51.674;7.868;2023-12-07T13:26:05;20.80;;;18.70;;
9924;SDS011;5001;51.674;7.868;2023-12-07T13:28:33;19.73;;;18.13;;
9924;SDS011;5001;51.674;7.868;2023-12-07T13:31:00;21.53;;;19.40;;
9924;SDS011;5001;51.674;7.868;2023-12-07T13:33:27;20.47;;;18.77;;
9924;SDS011;5001;51.674;7.868;2023-12-07T13:35:59;20.97;;;18.97;;
9924;SDS011;5001;51.674;7.868;2023-12-07T13:38:32;19.90;;;18.33;;
9924;SDS011;5001;51.674;7.868;2023-12-07T13:41:00;20.70;;;19.00;;
9924;SDS011;5001;51.674;7.868;2023-12-07T13:43:28;21.23;;;19.10;;
9924;SDS011;5001;51.674;7.868;2023-12-07T13:45:58;20.97;;;19.20;;
9924;SDS011;5001;51.674;7.868;2023-12-07T13:48:25;20.23;;;18.63;;
9924;SDS011;5001;51.674;7.868;2023-12-07T13:50:53;20.77;;;19.07;;
9924;SDS011;5001;51.674;7.868;2023-12-07T13:53:21;20.77;;;19.03;;
9924;SDS011;5001;51.674;7.868;2023-12-07T13:55:48;21.17;;;19.30;;
9924;SDS011;5001;51.674;7.868;2023-12-07T13:58:17;20.03;;;18.50;;
9924;SDS011;5001;51.674;7.868;2023-12-07T14:00:44;21.93;;;20.03;;
9924;SDS011;5001;51.674;7.868;2023-12-07T14:03:12;20.40;;;18.63;;
9924;SDS011;5001;51.674;7.868;2023-12-07T14:05:40;20.93;;;19.23;;
9924;SDS011;5001;51.674;7.868;2023-12-07T14:08:07;23.40;;;21.20;;
9924;SDS011;5001;51.674;7.868;2023-12-07T14:10:34;21.30;;;19.50;;
9924;SDS011;5001;51.674;7.868;2023-12-07T14:13:02;20.57;;;19.00;;
9924;SDS011;5001;51.674;7.868;2023-12-07T14:15:29;21.53;;;19.57;;
9924;SDS011;5001;51.674;7.868;2023-12-07T14:18:10;21.50;;;19.57;;
9924;SDS011;5001;51.674;7.868;2023-12-07T14:20:37;21.47;;;19.73;;
9924;SDS011;5001;51.674;7.868;2023-12-07T14:23:07;22.17;;;20.30;;
9924;SDS011;5001;51.674;7.868;2023-12-07T14:25:35;21.27;;;19.60;;
9924;SDS011;5001;51.674;7.868;2023-12-07T14:28:02;20.73;;;18.83;;
9924;SDS011;5001;51.674;7.868;2023-12-07T14:30:29;21.23;;;19.43;;
9924;SDS011;5001;51.674;7.868;2023-12-07T14:32:55;20.17;;;18.57;;
9924;SDS011;5001;51.674;7.868;2023-12-07T14:35:23;20.13;;;18.43;;
9924;SDS011;5001;51.674;7.868;2023-12-07T14:37:51;19.77;;;18.10;;
9924;SDS011;5001;51.674;7.868;2023-12-07T14:40:18;20.63;;;19.03;;
9924;SDS011;5001;51.674;7.868;2023-12-07T14:42:45;21.50;;;19.47;;
9924;SDS011;5001;51.674;7.868;2023-12-07T14:45:12;19.50;;;18.00;;
9924;SDS011;5001;51.674;7.868;2023-12-07T14:47:42;21.13;;;19.23;;
9924;SDS011;5001;51.674;7.868;2023-12-07T14:50:09;20.73;;;18.93;;
9924;SDS011;5001;51.674;7.868;2023-12-07T14:52:36;21.40;;;19.60;;
9924;SDS011;5001;51.674;7.868;2023-12-07T14:55:04;20.97;;;19.20;;
9924;SDS011;5001;51.674;7.868;2023-12-07T14:57:32;20.40;;;18.70;;
9924;SDS011;5001;51.674;7.868;2023-12-07T14:59:59;22.13;;;20.00;;
9924;SDS011;5001;51.674;7.868;2023-12-07T15:02:27;21.97;;;19.70;;
9924;SDS011;5001;51.674;7.868;2023-12-07T15:04:54;22.53;;;20.50;;
9924;SDS011;5001;51.674;7.868;2023-12-07T15:07:21;22.40;;;20.07;;